Nogal, NM

11:06 PM MDT op 27 september 2016 (GMT -0600)
Nogal Mesa Loma Grande | | Change Station

Hoogte 7224 ft 33.50 °N, 105.69 °W | Updated 30 seconds ago

Clear
Helder
52.9 °F
Voelt als 52.9 °F
N
2.2
Wind Variabel Wind van NNO

Vandaag
Hoog -- | Laag -- °F
--% Kans op neerslag
Gisteren
Hoog -- | Laag -- °F
Precip. -- inches
Druk 30.33 inches
Zicht 10.0 mijlen
Wolken Helder
Dauwpunt 38 °F
Vochtigheid 58%
Neerslag 0.00 inches
Dikte sneeuw Niet beschikbaar.
6:54 AM 6:52 PM
Afnemende halvemaan, 7% visible
METAR KSRR 280455Z AUTO 30004KT 10SM VCTS CLR 12/02 A3033 RMK AO2 LTG DSNT W
Druk 30.33 inches
Zicht 10.0 mijlen
Wolken Helder
Dauwpunt 38 °F
Vochtigheid 58%
Neerslag 0.00 inches
Dikte sneeuw Niet beschikbaar.
6:54 AM 6:52 PM
Afnemende halvemaan, 7% visible
METAR KSRR 280455Z AUTO 30004KT 10SM VCTS CLR 12/02 A3033 RMK AO2 LTG DSNT W

10-Day Weather Forecast

Almanac

Astronomie

Sep. 27, 2016 Opkomst Ondergang
Werkelijke tijd
Burgerlijke schemering
Nautische schemering
Astronomische schemering
Maan
Golflengte van het zichtbare licht
Daglengte
Tomorrow will be .
, % of the Moon is Illuminated

Extremen vandaag

State Highs State Lows

Community

WunderPhotos

Upload Photos

1,942,213 foto’s ge-upload!

WunderBlog® & News

Nearby

Luchtkwaliteit

  Luchtkwaliteit LK-index Verontreinigende stof
Not available.

Dikte sneeuw

Station Depth Geometrische hoogte

Aardbevingen

Stad Distance Mag. Time & Date
Minimum magnitude displayed is 2.5.

Watertemperatuur langs de kust

Plaats Temperatuur

Stations

Nabije weerstations

Locatie station Temp. Gevoelstemperatuur Dauwpunt Vochtigheid Wind Precip. Hoogte Geactualiseerd Type
                   

Watches & Warnings

There are currently no watches in effect.